Bloemfontein, South Africa
Current Conditions -  °F | °C
As of 11:00 PM on Friday 31 Oct 2014 (Local Time) from FABL Reporting Station
NA  
Wind Chill: 70°   Ceiling: NA
Heat Index: 70°   Visibility: NA
Dew Point: 28°   Wind: 1mph
Humidity: 21%   Direction: 360°N
Pressure: 30.06"   Gusts: NA
Location:  29.15°S, 26.23°E
Report Text: FABL 312100Z AUTO 36001KT //// // ////// 21/M02 Q1018
Loading
Personal Weather Stations






























Interactive Weather Map
Tropical Storm Tracking
New forecast layout! Learn more

10-Day Weather Forecast

Advertisements
Track Severe Weather on mobile